createdAt,value
2018-11-29T00:02:44.986Z,62.18
2018-11-29T00:07:03.923Z,62.16
2018-11-29T00:11:07.975Z,61.63
2018-11-29T00:15:14.604Z,61.98
2018-11-29T00:19:18.625Z,61.63
2018-11-29T00:23:22.631Z,61.95
2018-11-29T00:27:26.623Z,61.62
2018-11-29T00:31:30.776Z,61.79
2018-11-29T00:35:34.810Z,61.70
2018-11-29T00:39:39.020Z,62.17
2018-11-29T00:43:43.014Z,62.25
2018-11-29T00:47:47.521Z,62.10
2018-11-29T00:51:52.566Z,62.24
2018-11-29T00:55:56.539Z,61.59
2018-11-29T01:00:00.504Z,61.79
2018-11-29T01:04:04.487Z,62.27
2018-11-29T01:08:08.603Z,62.12
2018-11-29T01:12:12.647Z,62.26
2018-11-29T01:16:16.674Z,61.96
2018-11-29T01:20:21.383Z,62.70
2018-11-29T01:24:25.440Z,62.59
2018-11-29T01:28:29.431Z,62.77
2018-11-29T01:32:33.512Z,62.53
2018-11-29T01:36:37.586Z,62.21
2018-11-29T01:40:41.617Z,62.02
2018-11-29T01:44:45.692Z,62.18
2018-11-29T01:48:49.911Z,62.41
2018-11-29T01:52:54.024Z,62.74
2018-11-29T01:56:58.101Z,62.81
2018-11-29T02:01:02.214Z,62.57
2018-11-29T02:05:07.668Z,62.80
2018-11-29T02:09:11.760Z,62.58
2018-11-29T02:13:15.765Z,62.35
2018-11-29T02:17:19.789Z,62.67
2018-11-29T02:21:23.840Z,62.46
2018-11-29T02:25:27.952Z,62.67
2018-11-29T02:29:31.988Z,62.41
2018-11-29T02:33:36.020Z,62.41
2018-11-29T02:37:39.965Z,62.56
2018-11-29T04:54:23.335Z,64.58
2018-11-29T04:58:27.385Z,64.90
2018-11-29T05:02:31.410Z,64.82
2018-11-29T05:06:35.411Z,64.93
2018-11-29T05:10:39.705Z,64.76
2018-11-29T05:14:43.707Z,64.47
2018-11-29T05:18:47.760Z,64.57
2018-11-29T05:22:51.802Z,64.40
2018-11-29T05:26:55.982Z,64.72
2018-11-29T05:30:59.996Z,64.38
2018-11-29T05:35:06.162Z,64.63
2018-11-29T05:39:10.188Z,64.32
2018-11-29T05:43:14.192Z,64.88
2018-11-29T05:47:18.219Z,64.37
2018-11-29T05:51:22.182Z,64.35
2018-11-29T05:55:26.208Z,64.98
2018-11-29T05:59:30.273Z,63.98
2018-11-29T06:03:34.274Z,64.44
2018-11-29T06:07:38.324Z,64.67
2018-11-29T06:11:42.485Z,64.69
2018-11-29T06:15:46.451Z,64.49
2018-11-29T06:19:50.531Z,64.23
2018-11-29T06:23:54.543Z,64.67
2018-11-29T06:27:58.546Z,64.83
2018-11-29T06:32:03.025Z,64.43
2018-11-29T06:36:07.127Z,64.49
2018-11-29T06:40:12.070Z,64.20
2018-11-29T06:44:16.032Z,64.53
2018-11-29T06:48:21.029Z,63.95
2018-11-29T06:52:25.007Z,63.96
2018-11-29T06:56:29.078Z,64.33
2018-11-29T07:00:33.182Z,64.66
2018-11-29T07:04:38.726Z,64.85
2018-11-29T07:08:42.742Z,64.45
2018-11-29T07:12:46.684Z,64.89
2018-11-29T07:16:50.739Z,64.29
2018-11-29T07:21:06.027Z,64.58
2018-11-29T07:25:10.374Z,63.91
2018-11-29T07:29:16.893Z,63.96
2018-11-29T07:33:18.459Z,63.77
2018-11-29T07:37:27.825Z,64.22
2018-11-29T07:41:32.879Z,63.92
2018-11-29T07:45:36.882Z,64.32
2018-11-29T07:49:40.914Z,64.48
2018-11-29T07:53:44.867Z,64.37
2018-11-29T07:57:51.435Z,64.12
2018-11-29T08:01:55.503Z,63.83
2018-11-29T08:05:59.571Z,64.55
2018-11-29T08:10:03.705Z,64.84
2018-11-29T08:14:07.750Z,64.70
2018-11-29T08:18:11.888Z,64.08
2018-11-29T08:22:15.935Z,64.38
2018-11-29T08:26:19.930Z,63.84
2018-11-29T08:30:23.983Z,63.86
2018-11-29T08:34:27.978Z,63.57
2018-11-29T08:38:32.210Z,63.62
2018-11-29T08:42:36.554Z,63.19
2018-11-29T08:46:40.567Z,63.63
2018-11-29T08:50:44.679Z,63.61
2018-11-29T08:54:48.723Z,62.97
2018-11-29T08:58:52.782Z,63.29
2018-11-29T09:02:56.863Z,63.29
2018-11-29T09:07:00.972Z,63.15
2018-11-29T09:11:05.425Z,63.66
2018-11-29T09:15:13.417Z,63.81
2018-11-29T09:19:17.599Z,63.49
2018-11-29T09:23:21.931Z,64.03
2018-11-29T09:27:25.975Z,63.99
2018-11-29T09:31:30.451Z,63.98
2018-11-29T09:35:34.651Z,64.31
2018-11-29T09:39:38.637Z,64.22
2018-11-29T09:43:44.167Z,64.29
2018-11-29T09:47:49.379Z,64.82
2018-11-29T09:51:53.470Z,64.76
2018-11-29T09:55:57.475Z,65.24
2018-11-29T10:00:01.483Z,65.38
2018-11-29T10:04:05.722Z,65.50
2018-11-29T10:08:12.456Z,65.72
2018-11-29T10:12:16.463Z,65.70
2018-11-29T10:16:20.450Z,65.61
2018-11-29T10:20:24.502Z,65.59
2018-11-29T10:24:28.462Z,65.59
2018-11-29T10:28:32.539Z,65.87
2018-11-29T10:32:36.530Z,65.82
2018-11-29T10:36:40.535Z,65.41
2018-11-29T10:40:44.606Z,65.73
2018-11-29T10:44:48.633Z,65.74
2018-11-29T10:48:52.691Z,65.80
2018-11-29T10:52:56.919Z,65.48
2018-11-29T10:57:00.967Z,65.42
2018-11-29T11:01:10.735Z,65.18
2018-11-29T11:05:16.379Z,65.30
2018-11-29T11:09:20.411Z,65.00
2018-11-29T11:13:24.477Z,66.00
2018-11-29T11:17:28.452Z,66.07
2018-11-29T11:21:32.518Z,66.11
2018-11-29T11:25:36.701Z,65.65
2018-11-29T11:29:40.643Z,66.30
2018-11-29T11:33:44.607Z,65.48
2018-11-29T11:37:48.556Z,65.54
2018-11-29T11:41:52.635Z,65.16
2018-11-29T11:45:56.701Z,64.79
2018-11-29T11:50:00.748Z,64.31
2018-11-29T11:54:04.990Z,63.55
2018-11-29T11:58:09.249Z,63.51
2018-11-29T12:02:13.395Z,64.15
2018-11-29T12:06:17.502Z,63.36
2018-11-29T12:10:21.507Z,63.29
2018-11-29T12:14:25.487Z,62.79
2018-11-29T12:18:41.510Z,63.00
2018-11-29T12:22:48.013Z,63.29
2018-11-29T12:26:52.007Z,63.34
2018-11-29T12:30:56.156Z,63.59
2018-11-29T12:35:00.194Z,63.80
2018-11-29T12:39:08.550Z,64.01
2018-11-29T12:43:12.620Z,63.74
2018-11-29T12:47:16.601Z,64.13
2018-11-29T12:51:20.582Z,64.22
2018-11-29T12:55:25.721Z,64.81
2018-11-29T12:59:29.743Z,64.26
2018-11-29T13:03:33.707Z,63.04
2018-11-29T13:07:37.786Z,62.93
2018-11-29T13:11:41.855Z,62.31
2018-11-29T13:15:45.986Z,61.81
2018-11-29T13:19:55.514Z,61.55
2018-11-29T13:24:00.520Z,61.53
2018-11-29T13:28:04.114Z,61.51
2018-11-29T13:32:08.163Z,61.84
2018-11-29T13:36:12.489Z,61.36
2018-11-29T13:44:20.606Z,61.00
2018-11-29T13:48:24.608Z,60.43
2018-11-29T13:52:28.716Z,60.68
2018-11-29T13:56:32.732Z,60.34
2018-11-29T14:00:36.719Z,60.11
2018-11-29T14:04:40.751Z,59.44
2018-11-29T14:08:44.734Z,59.41
2018-11-29T14:12:49.743Z,59.46
2018-11-29T14:16:53.798Z,59.47
2018-11-29T14:20:57.923Z,60.28
2018-11-29T14:25:01.962Z,60.21
2018-11-29T14:29:06.123Z,59.92
2018-11-29T14:33:10.381Z,60.33
2018-11-29T14:37:15.522Z,59.50
2018-11-29T14:41:19.654Z,59.60
2018-11-29T14:45:24.891Z,59.09
2018-11-29T14:49:28.911Z,59.25
2018-11-29T14:53:33.127Z,59.36
2018-11-29T14:57:37.200Z,59.42
2018-11-29T15:01:41.284Z,59.27
2018-11-29T15:05:46.502Z,59.56
2018-11-29T15:09:56.205Z,59.42
2018-11-29T15:14:00.699Z,60.21
2018-11-29T15:18:04.736Z,60.23
2018-11-29T15:22:08.787Z,60.18
2018-11-29T15:26:12.885Z,60.48
2018-11-29T15:30:17.995Z,60.70
2018-11-29T15:34:22.064Z,60.23
2018-11-29T15:38:26.055Z,60.18
2018-11-29T15:42:30.046Z,60.44
2018-11-29T15:46:34.014Z,59.81
2018-11-29T15:50:38.003Z,59.36
2018-11-29T15:54:42.122Z,58.95
2018-11-29T15:58:46.055Z,58.81
2018-11-29T16:02:50.537Z,58.73
2018-11-29T16:06:54.595Z,58.52
2018-11-29T16:10:58.532Z,59.02
2018-11-29T16:15:02.503Z,58.81
2018-11-29T16:19:06.619Z,58.41
2018-11-29T16:23:10.763Z,59.16
2018-11-29T16:27:14.880Z,58.78
2018-11-29T16:31:18.808Z,58.64
2018-11-29T16:35:22.894Z,57.97
2018-11-29T16:39:26.884Z,58.26
2018-11-29T16:43:30.835Z,57.69
2018-11-29T16:47:34.830Z,57.38
2018-11-29T16:51:38.777Z,56.68
2018-11-29T16:55:42.779Z,56.45
2018-11-29T16:59:46.811Z,56.82
2018-11-29T17:03:50.820Z,56.46
2018-11-29T17:07:54.867Z,57.01
2018-11-29T17:12:00.291Z,56.66
2018-11-29T17:16:03.218Z,56.95
2018-11-29T17:20:09.764Z,56.65
2018-11-29T17:24:20.830Z,56.92
2018-11-29T17:28:28.688Z,57.05
2018-11-29T17:32:32.645Z,56.48
2018-11-29T17:36:36.587Z,57.10
2018-11-29T17:40:40.819Z,56.61
2018-11-29T17:44:45.006Z,56.03
2018-11-29T17:48:49.192Z,55.76
2018-11-29T17:52:53.302Z,55.69
2018-11-29T17:56:57.520Z,55.49
2018-11-29T18:01:02.528Z,55.15
2018-11-29T18:05:07.261Z,55.42
2018-11-29T18:09:13.501Z,55.46
2018-11-29T18:13:19.260Z,55.29
2018-11-29T18:17:23.845Z,55.50
2018-11-29T18:21:27.954Z,55.36
2018-11-29T18:25:32.127Z,55.79
2018-11-29T18:29:36.221Z,56.30
2018-11-29T18:33:40.191Z,56.82
2018-11-29T18:37:44.463Z,57.38
2018-11-29T18:41:48.780Z,57.19
2018-11-29T18:45:53.256Z,57.38
2018-11-29T18:49:57.248Z,57.10
2018-11-29T18:54:01.212Z,56.66
2018-11-29T18:58:06.396Z,56.33
2018-11-29T19:02:11.515Z,56.74
2018-11-29T19:06:15.589Z,56.38
2018-11-29T19:10:19.956Z,56.12
2018-11-29T19:14:23.954Z,56.26
2018-11-29T19:18:28.039Z,55.99
2018-11-29T19:22:32.151Z,56.50
2018-11-29T19:26:36.243Z,56.85
2018-11-29T19:30:40.219Z,57.68
2018-11-29T19:34:44.188Z,57.34
2018-11-29T19:38:48.107Z,57.83
2018-11-29T19:42:52.198Z,57.34
2018-11-29T19:46:56.362Z,57.75
2018-11-29T19:51:00.534Z,57.64
2018-11-29T19:55:04.615Z,57.94
2018-11-29T19:59:08.699Z,58.35
2018-11-29T20:03:12.595Z,58.54
2018-11-29T20:07:16.584Z,59.01
2018-11-29T20:11:21.556Z,59.38
2018-11-29T20:15:25.521Z,59.53
2018-11-29T20:19:29.634Z,59.19
2018-11-29T20:23:33.615Z,59.77
2018-11-29T20:27:37.698Z,59.83
2018-11-29T20:31:41.692Z,60.09
2018-11-29T20:35:45.788Z,60.07
2018-11-29T20:39:49.767Z,60.12
2018-11-29T20:43:53.773Z,58.60
2018-11-29T20:47:58.919Z,56.94
2018-11-29T20:52:02.894Z,56.09
2018-11-29T20:56:11.163Z,54.26
2018-11-29T21:00:15.675Z,53.94
2018-11-29T21:04:19.741Z,53.22
2018-11-29T21:08:23.758Z,53.40
2018-11-29T21:12:27.764Z,53.48
2018-11-29T21:16:31.794Z,53.41
2018-11-29T21:20:35.941Z,53.83
2018-11-29T21:24:39.930Z,53.74
2018-11-29T21:28:43.968Z,53.69
2018-11-29T21:32:48.229Z,53.85
2018-11-29T21:36:52.251Z,53.47
2018-11-29T21:41:02.052Z,53.82
2018-11-29T21:45:06.192Z,53.44
2018-11-29T21:49:10.135Z,53.77
2018-11-29T21:53:14.215Z,53.75
2018-11-29T21:57:18.171Z,53.75
2018-11-29T22:01:22.131Z,53.81
2018-11-29T22:05:26.111Z,53.62
2018-11-29T22:09:30.140Z,53.99
2018-11-29T22:13:34.377Z,54.18
2018-11-29T22:17:54.056Z,54.32
2018-11-29T22:21:59.233Z,54.29
2018-11-29T22:26:05.065Z,54.62
2018-11-29T22:30:09.056Z,54.05
2018-11-29T22:34:13.590Z,54.08
2018-11-29T22:38:17.616Z,53.77
2018-11-29T22:42:21.566Z,53.54
2018-11-29T22:46:25.677Z,54.12
2018-11-29T22:50:29.726Z,54.21
2018-11-29T22:54:33.783Z,53.84
2018-11-29T22:58:38.172Z,53.83
2018-11-29T23:02:42.136Z,53.75
2018-11-29T23:06:46.152Z,53.17
2018-11-29T23:10:53.307Z,53.87
2018-11-29T23:14:57.285Z,53.57
2018-11-29T23:19:01.821Z,53.73
2018-11-29T23:23:05.880Z,53.60
2018-11-29T23:27:10.251Z,54.01
2018-11-29T23:31:14.478Z,53.68
2018-11-29T23:35:18.588Z,54.18
2018-11-29T23:39:22.627Z,53.83
2018-11-29T23:43:26.851Z,54.07
2018-11-29T23:47:31.063Z,54.26
2018-11-29T23:51:35.075Z,53.97
2018-11-29T23:55:39.991Z,53.89
2018-11-29T23:59:44.026Z,54.45
